Time;durP1;ratioP1;P1;durP2;ratioP2;P2;SDS_P1;SDS_P2;PMS_P1;PMS_P2;Temp;Humidity;BMP_temperature;BMP_pressure;BME280_temperature;BME280_humidity;BME280_pressure;Samples;Min_cycle;Max_cycle;Signal;HPM_P1;HPM_P2
2023/03/18 00:01:15;;;;;;;7.85;5.03;;;;;;;8.25;77.67;97691.63;4978883;28;20387;-91
2023/03/18 00:03:41;;;;;;;6.85;4.85;;;;;;;8.34;77.79;97690.47;4979802;28;20034;-90
2023/03/18 00:06:20;;;;;;;6.35;3.90;;;;;;;8.37;76.70;97697.13;4995670;28;20026;-90
2023/03/18 00:08:53;;;;;;;7.25;4.13;;;;;;;8.19;76.98;97672.28;4994043;28;20037;-91
2023/03/18 00:11:20;;;;;;;6.93;4.03;;;;;;;8.41;75.59;97695.75;4995453;28;20030;-91
2023/03/18 00:13:48;;;;;;;6.78;4.03;;;;;;;8.38;76.13;97694.31;4995113;28;20460;-91
2023/03/18 00:16:15;;;;;;;5.97;4.25;;;;;;;8.32;75.77;97682.78;4977742;28;20026;-91
2023/03/18 00:18:42;;;;;;;6.57;4.22;;;;;;;8.25;75.81;97668.91;4976735;28;20055;-90
2023/03/18 00:21:09;;;;;;;5.22;3.63;;;;;;;8.23;74.15;97673.53;4958882;28;20082;-91
2023/03/18 00:23:37;;;;;;;5.32;4.30;;;;;;;8.28;74.83;97681.59;4942479;28;20035;-91
2023/03/18 00:26:05;;;;;;;5.43;3.53;;;;;;;8.47;73.86;97695.75;4958756;28;20079;-91
2023/03/18 00:28:31;;;;;;;5.88;4.20;;;;;;;8.48;71.71;97696.56;4967562;28;20038;-91
2023/03/18 00:31:09;;;;;;;6.55;4.10;;;;;;;8.49;72.05;97692.94;4969127;28;20121;-91
2023/03/18 00:33:38;;;;;;;4.47;3.42;;;;;;;8.32;71.69;97661.88;4951280;29;20450;-90
2023/03/18 00:36:08;;;;;;;7.53;4.35;;;;;;;8.49;72.45;97696.34;4961541;29;20031;-91
2023/03/18 00:38:38;;;;;;;5.63;3.53;;;;;;;8.45;70.84;97681.25;4962355;28;20097;-90
2023/03/18 00:41:10;;;;;;;6.35;3.22;;;;;;;8.52;71.20;97692.56;4943590;29;20047;-91
2023/03/18 00:43:53;;;;;;;4.70;3.63;;;;;;;8.66;71.54;97702.06;4937346;29;20039;-91
2023/03/18 00:46:36;;;;;;;5.85;3.95;;;;;;;8.61;70.65;97691.38;4956036;29;20043;-90
2023/03/18 00:49:07;;;;;;;4.47;3.50;;;;;;;8.61;71.59;97696.59;4943847;29;20043;-91
2023/03/18 00:51:37;;;;;;;4.30;3.70;;;;;;;8.54;71.97;97693.97;4941441;29;20067;-91
2023/03/18 00:54:08;;;;;;;6.63;4.65;;;;;;;8.54;74.74;97699.19;4953564;29;20090;-91
2023/03/18 00:56:39;;;;;;;7.50;5.22;;;;;;;8.44;76.79;97669.19;4943397;29;20043;-93
2023/03/18 00:59:07;;;;;;;6.63;3.97;;;;;;;8.43;74.99;97689.31;4961792;29;20439;-91
2023/03/18 01:01:35;;;;;;;5.25;3.53;;;;;;;8.44;73.52;97696.13;4974896;28;20039;-91
2023/03/18 01:04:03;;;;;;;4.53;3.83;;;;;;;8.29;74.48;97674.56;4944354;29;20035;-91
2023/03/18 01:06:33;;;;;;;6.22;4.13;;;;;;;8.52;75.57;97705.63;4937199;29;20047;-91
2023/03/18 01:09:01;;;;;;;7.57;4.33;;;;;;;8.43;75.92;97684.06;4956629;28;20043;-90
2023/03/18 01:11:28;;;;;;;6.65;3.95;;;;;;;8.21;75.99;97670.28;4960930;28;20584;-92
2023/03/18 01:13:58;;;;;;;6.40;4.18;;;;;;;8.36;75.53;97685.06;4961483;28;20035;-91
2023/03/18 01:16:26;;;;;;;5.25;3.97;;;;;;;8.44;78.23;97684.88;4957902;29;20043;-91
2023/03/18 01:18:53;;;;;;;5.00;4.38;;;;;;;8.43;79.05;97688.50;4952068;29;20043;-91
2023/03/18 01:21:19;;;;;;;6.47;4.53;;;;;;;8.40;79.00;97694.13;4964092;28;20046;-89
2023/03/18 01:23:45;;;;;;;5.47;4.18;;;;;;;8.41;79.19;97700.97;4978308;28;20035;-90
2023/03/18 01:26:12;;;;;;;5.57;4.47;;;;;;;8.37;79.91;97700.53;4958315;29;20051;-90
2023/03/18 01:28:39;;;;;;;9.02;4.55;;;;;;;8.15;80.49;97680.72;4943534;29;20074;-91
2023/03/18 01:31:06;;;;;;;6.80;4.43;;;;;;;8.37;80.15;97710.19;4957261;28;20371;-91
2023/03/18 01:33:34;;;;;;;5.97;4.60;;;;;;;8.39;79.73;97722.03;4955148;28;20039;-90
2023/03/18 01:36:02;;;;;;;6.70;4.25;;;;;;;8.25;79.53;97696.84;4952606;28;20043;-90
2023/03/18 01:38:32;;;;;;;7.22;4.55;;;;;;;8.05;78.93;97675.84;4946752;28;20043;-91
2023/03/18 01:40:59;;;;;;;6.10;4.43;;;;;;;8.09;78.20;97713.63;4988474;28;20058;-91
2023/03/18 01:43:32;;;;;;;5.85;4.13;;;;;;;8.11;78.58;97711.66;4960979;28;20034;-90
2023/03/18 01:46:21;;;;;;;6.20;4.28;;;;;;;7.97;79.06;97715.97;4960800;29;20067;-91
2023/03/18 01:48:50;;;;;;;7.10;4.88;;;;;;;8.04;79.80;97736.94;4956431;28;20458;-90
2023/03/18 01:51:19;;;;;;;5.70;4.53;;;;;;;7.88;80.63;97724.16;4933652;29;20050;-90
2023/03/18 01:53:49;;;;;;;6.80;4.18;;;;;;;7.72;78.90;97710.41;4925147;29;20090;-91
2023/03/18 01:56:17;;;;;;;6.28;4.20;;;;;;;7.91;78.98;97723.78;4963508;28;20386;-89
2023/03/18 01:58:51;;;;;;;5.45;4.40;;;;;;;7.84;79.81;97715.09;4959779;28;20059;-90
2023/03/18 02:01:39;;;;;;;5.13;3.80;;;;;;;7.92;78.63;97741.06;4957688;29;20184;-90
2023/03/18 02:04:09;;;;;;;5.00;3.95;;;;;;;7.77;77.18;97728.09;4958576;28;20055;-90
2023/03/18 02:06:37;;;;;;;5.05;3.60;;;;;;;7.86;76.32;97728.78;4977129;28;20043;-90
2023/03/18 02:09:05;;;;;;;6.03;4.30;;;;;;;7.77;77.11;97721.06;4955699;28;20090;-90
2023/03/18 02:11:38;;;;;;;5.10;3.70;;;;;;;7.88;77.32;97737.22;4943820;28;20047;-91
2023/03/18 02:14:08;;;;;;;4.78;3.67;;;;;;;7.89;77.41;97738.81;4972513;28;20035;-91
2023/03/18 02:16:52;;;;;;;6.20;3.78;;;;;;;7.65;78.92;97711.34;4960471;28;20074;-91
2023/03/18 02:19:55;;;;;;;6.80;3.80;;;;;;;7.91;78.40;97734.22;4973245;28;20386;-91
2023/03/18 02:22:37;;;;;;;7.10;3.97;;;;;;;7.79;77.13;97737.34;4976768;28;20065;-90
2023/03/18 02:25:18;;;;;;;6.15;3.70;;;;;;;7.92;76.13;97749.72;4944299;28;20490;-90
2023/03/18 02:27:53;;;;;;;6.38;3.80;;;;;;;7.95;78.08;97774.63;4977815;28;20035;-90
2023/03/18 02:30:33;;;;;;;5.55;3.85;;;;;;;7.95;78.61;97743.28;4942235;29;20081;-90
2023/03/18 02:33:01;;;;;;;6.20;3.90;;;;;;;7.86;77.63;97749.66;4957726;28;20090;-90
2023/03/18 02:35:31;;;;;;;6.35;3.90;;;;;;;7.72;76.80;97730.47;4976331;28;20077;-91
2023/03/18 02:37:57;;;;;;;8.55;4.30;;;;;;;7.92;80.48;97754.13;4958621;28;20097;-90
2023/03/18 02:40:31;;;;;;;4.82;3.75;;;;;;;7.99;82.16;97760.19;4959320;28;20038;-90
2023/03/18 02:43:17;;;;;;;4.38;3.88;;;;;;;7.87;81.90;97746.06;4975717;28;20035;-91
2023/03/18 02:45:56;;;;;;;4.93;3.75;;;;;;;7.92;82.53;97770.59;4964570;28;20078;-90
2023/03/18 02:48:35;;;;;;;6.30;3.88;;;;;;;7.74;81.46;97737.13;4975429;28;20039;-90
2023/03/18 02:51:03;;;;;;;5.30;4.00;;;;;;;7.70;80.24;97741.13;4971594;28;20062;-89
2023/03/18 02:53:37;;;;;;;4.75;3.58;;;;;;;7.64;81.87;97741.88;4955842;28;20038;-88
2023/03/18 02:56:04;;;;;;;7.68;4.25;;;;;;;7.70;82.82;97755.97;4974948;28;20105;-88
2023/03/18 02:58:31;;;;;;;5.03;3.83;;;;;;;7.63;81.79;97749.91;4973250;28;20097;-88
2023/03/18 03:00:57;;;;;;;4.95;3.70;;;;;;;7.58;79.54;97734.78;4953308;29;20043;-89
2023/03/18 03:03:25;;;;;;;5.10;3.75;;;;;;;7.56;78.93;97726.34;4938010;29;20043;-89
2023/03/18 03:05:51;;;;;;;5.32;4.03;;;;;;;7.70;81.05;97767.22;4945673;28;20102;-88
2023/03/18 03:08:18;;;;;;;5.72;3.97;;;;;;;7.53;82.88;97747.59;4973345;28;20404;-88
2023/03/18 03:10:45;;;;;;;6.20;3.92;;;;;;;7.48;83.88;97757.78;4974010;28;20038;-88
2023/03/18 03:13:12;;;;;;;6.65;4.10;;;;;;;7.46;84.03;97749.34;4955797;28;20030;-88
2023/03/18 03:15:39;;;;;;;6.60;3.78;;;;;;;7.64;83.75;97778.41;4946587;29;20047;-89
2023/03/18 03:18:09;;;;;;;4.53;3.58;;;;;;;7.43;83.65;97754.94;4935721;29;20035;-88
2023/03/18 03:20:36;;;;;;;7.75;4.07;;;;;;;7.67;83.89;97798.91;4952574;29;20596;-89
2023/03/18 03:23:05;;;;;;;8.10;4.10;;;;;;;7.56;83.72;97790.78;4953781;28;20182;-88
2023/03/18 03:25:32;;;;;;;5.72;4.05;;;;;;;7.57;83.38;97788.00;4937696;28;20416;-88
2023/03/18 03:27:59;;;;;;;7.00;4.93;;;;;;;7.56;82.91;97791.59;4964829;28;20102;-88
2023/03/18 03:30:26;;;;;;;7.07;4.45;;;;;;;7.40;83.36;97782.22;4951716;29;20098;-89
2023/03/18 03:32:52;;;;;;;7.30;4.70;;;;;;;7.35;83.37;97795.00;4968764;28;20036;-89
2023/03/18 03:35:21;;;;;;;5.95;4.53;;;;;;;7.30;84.51;97776.50;4964994;28;20065;-89
2023/03/18 03:37:47;;;;;;;6.70;4.13;;;;;;;7.23;85.07;97768.59;4968143;28;20038;-88
2023/03/18 03:40:19;;;;;;;6.20;4.65;;;;;;;7.19;84.46;97750.91;4948064;28;20375;-89
2023/03/18 03:42:47;;;;;;;6.43;4.50;;;;;;;7.40;84.44;97789.25;4971644;28;20047;-88
2023/03/18 03:45:15;;;;;;;6.97;4.40;;;;;;;7.38;85.41;97793.84;4971056;28;20109;-88
2023/03/18 03:47:43;;;;;;;7.40;4.43;;;;;;;7.18;85.58;97772.75;4969159;28;20405;-89
2023/03/18 03:50:10;;;;;;;5.57;4.28;;;;;;;7.21;86.50;97783.66;4967333;28;20102;-89
2023/03/18 03:52:39;;;;;;;7.88;4.35;;;;;;;7.19;87.26;97775.19;4954586;29;20394;-89
2023/03/18 03:55:08;;;;;;;5.55;4.38;;;;;;;7.24;86.49;97785.88;4927361;29;20046;-88
2023/03/18 03:57:36;;;;;;;6.90;4.93;;;;;;;7.02;84.37;97781.66;4944859;28;20065;-88
2023/03/18 04:00:12;;;;;;;6.95;4.53;;;;;;;7.06;84.62;97780.25;4973140;28;20027;-89
2023/03/18 04:02:43;;;;;;;5.93;4.63;;;;;;;7.00;86.19;97778.41;4956536;28;20023;-88
2023/03/18 04:05:13;;;;;;;7.85;4.65;;;;;;;7.02;85.67;97780.81;4955786;28;20399;-89
2023/03/18 04:07:41;;;;;;;5.88;4.30;;;;;;;7.01;87.33;97789.63;4972728;28;20036;-88
2023/03/18 04:10:10;;;;;;;5.03;3.92;;;;;;;7.07;87.17;97800.13;4967819;28;20038;-88
2023/03/18 04:12:37;;;;;;;5.95;4.18;;;;;;;7.19;86.85;97797.84;4939716;28;20042;-89
2023/03/18 04:15:06;;;;;;;8.20;4.20;;;;;;;7.15;85.97;97799.22;4937182;29;20058;-89
2023/03/18 04:17:33;;;;;;;5.45;4.25;;;;;;;7.05;86.95;97803.94;4966607;28;20046;-89
2023/03/18 04:20:00;;;;;;;5.88;4.15;;;;;;;7.16;86.49;97806.06;4973671;28;20038;-89
2023/03/18 04:22:27;;;;;;;7.10;4.30;;;;;;;7.04;87.16;97787.47;4956440;28;20058;-89
2023/03/18 04:24:53;;;;;;;7.45;4.28;;;;;;;7.02;86.72;97789.47;4955370;28;20042;-89
2023/03/18 04:27:19;;;;;;;5.43;4.22;;;;;;;7.02;86.24;97812.94;4968102;28;20481;-89
2023/03/18 04:29:45;;;;;;;7.22;4.40;;;;;;;6.90;86.57;97780.50;4949906;28;20034;-88
2023/03/18 04:32:12;;;;;;;5.50;4.40;;;;;;;7.00;86.20;97808.88;4973586;28;20035;-89
2023/03/18 04:34:39;;;;;;;6.95;4.53;;;;;;;6.95;86.19;97809.44;4946583;29;20043;-89
2023/03/18 04:37:07;;;;;;;5.15;4.25;;;;;;;6.86;86.99;97769.63;4970894;28;20097;-88
2023/03/18 04:39:33;;;;;;;6.20;4.38;;;;;;;7.00;86.64;97814.91;4936148;29;20063;-89
2023/03/18 04:42:00;;;;;;;5.90;4.53;;;;;;;6.92;87.18;97784.53;4969271;28;20074;-88
2023/03/18 04:44:26;;;;;;;5.57;4.03;;;;;;;6.91;87.21;97787.34;4950430;29;20626;-88
2023/03/18 04:46:53;;;;;;;6.60;4.68;;;;;;;6.85;87.36;97769.81;4957359;28;20035;-88
2023/03/18 04:49:20;;;;;;;7.20;4.38;;;;;;;6.87;88.08;97762.63;4944157;29;20082;-88
2023/03/18 04:51:46;;;;;;;8.45;4.82;;;;;;;6.93;88.43;97783.53;4952685;28;20050;-88
2023/03/18 04:54:13;;;;;;;7.13;4.20;;;;;;;6.80;86.79;97786.00;4971100;28;20046;-88
2023/03/18 04:56:39;;;;;;;7.78;4.53;;;;;;;6.69;87.19;97771.63;4939253;28;20094;-88
2023/03/18 04:59:06;;;;;;;5.38;4.03;;;;;;;6.83;88.56;97803.06;4955653;28;20050;-88
2023/03/18 05:01:32;;;;;;;5.65;4.47;;;;;;;6.64;88.29;97771.38;4957911;28;20047;-89
2023/03/18 05:03:59;;;;;;;7.90;4.68;;;;;;;6.61;89.36;97779.56;4964939;28;20031;-88
2023/03/18 05:06:30;;;;;;;7.13;4.50;;;;;;;6.73;89.33;97799.97;4955355;28;20078;-88
2023/03/18 05:08:57;;;;;;;5.07;4.13;;;;;;;6.76;89.47;97789.16;4935557;28;20042;-88
2023/03/18 05:11:24;;;;;;;8.18;4.63;;;;;;;6.70;89.19;97796.72;4964023;28;20039;-88
2023/03/18 05:13:51;;;;;;;6.90;4.03;;;;;;;6.73;89.11;97799.97;4946295;28;20491;-88
2023/03/18 05:16:17;;;;;;;6.60;4.70;;;;;;;6.54;89.32;97778.69;4939187;28;20074;-89
2023/03/18 05:18:46;;;;;;;8.05;5.07;;;;;;;6.61;89.08;97784.78;4956165;28;20471;-88
2023/03/18 05:21:12;;;;;;;7.32;4.20;;;;;;;6.74;89.16;97797.16;4923785;29;20511;-88
2023/03/18 05:23:41;;;;;;;5.95;4.35;;;;;;;6.63;89.16;97784.59;4941088;28;20011;-88
2023/03/18 05:26:08;;;;;;;11.63;7.60;;;;;;;6.55;90.25;97767.28;4942647;28;20034;-88
2023/03/18 05:28:35;;;;;;;5.60;4.25;;;;;;;6.70;90.46;97801.13;4958206;28;20509;-88
2023/03/18 05:31:01;;;;;;;7.28;4.85;;;;;;;6.51;90.09;97775.63;4961681;28;20051;-88
2023/03/18 05:33:27;;;;;;;7.13;4.78;;;;;;;6.59;90.49;97798.97;4957368;29;20035;-88
2023/03/18 05:35:54;;;;;;;5.53;4.82;;;;;;;6.70;91.98;97804.53;4954741;29;20070;-89
2023/03/18 05:38:20;;;;;;;7.13;4.85;;;;;;;6.69;92.01;97810.72;4975885;28;20035;-88
2023/03/18 05:40:46;;;;;;;7.25;4.80;;;;;;;6.65;91.91;97814.69;4969137;28;20035;-89
2023/03/18 05:43:12;;;;;;;8.68;5.00;;;;;;;6.53;91.87;97803.09;4958753;28;20062;-89
2023/03/18 05:45:39;;;;;;;5.82;4.60;;;;;;;6.48;92.45;97783.78;4950334;28;20046;-88
2023/03/18 05:48:05;;;;;;;7.68;5.18;;;;;;;6.65;92.60;97811.28;4976182;28;20026;-89
2023/03/18 05:50:36;;;;;;;6.97;4.72;;;;;;;6.62;93.23;97798.63;4935861;28;20495;-89
2023/03/18 05:53:05;;;;;;;6.35;4.82;;;;;;;6.62;92.97;97789.00;4962243;28;20498;-88
2023/03/18 05:55:32;;;;;;;8.52;4.65;;;;;;;6.80;94.03;97806.06;4955627;28;20645;-88
2023/03/18 05:57:59;;;;;;;7.15;4.68;;;;;;;6.80;93.46;97812.06;4972196;28;20034;-88
2023/03/18 06:00:30;;;;;;;6.35;4.32;;;;;;;6.73;93.31;97815.59;4941782;28;20097;-88
2023/03/18 06:02:59;;;;;;;6.07;4.20;;;;;;;6.98;94.01;97827.31;4958686;28;20035;-89
2023/03/18 06:05:27;;;;;;;6.78;4.97;;;;;;;6.98;93.73;97843.78;4976522;28;20030;-88
2023/03/18 06:07:54;;;;;;;7.43;4.68;;;;;;;6.85;93.96;97819.34;4958529;28;20047;-89
2023/03/18 06:10:22;;;;;;;6.25;4.50;;;;;;;6.96;94.12;97811.06;4974770;28;20056;-88
2023/03/18 06:12:49;;;;;;;7.10;4.45;;;;;;;7.14;94.21;97829.72;4957896;28;20051;-88
2023/03/18 06:15:16;;;;;;;5.93;4.43;;;;;;;7.21;94.09;97830.59;4958250;28;20506;-88
2023/03/18 06:17:43;;;;;;;7.63;4.25;;;;;;;7.17;93.39;97839.78;4951266;28;20050;-89
2023/03/18 06:20:13;;;;;;;6.85;4.65;;;;;;;7.28;94.48;97824.66;4957679;28;20549;-88
2023/03/18 06:22:40;;;;;;;7.53;4.70;;;;;;;7.33;95.15;97822.28;4966739;28;20051;-87
2023/03/18 06:25:07;;;;;;;7.45;4.65;;;;;;;7.27;93.97;97821.22;4959719;28;20047;-88
2023/03/18 06:27:34;;;;;;;9.63;4.95;;;;;;;7.43;94.57;97817.56;4963534;28;20483;-87
2023/03/18 06:30:03;;;;;;;7.10;4.70;;;;;;;7.29;93.38;97813.22;4954267;28;20035;-86
2023/03/18 06:32:30;;;;;;;8.07;5.07;;;;;;;7.45;91.48;97832.06;4953681;28;20051;-87
2023/03/18 06:34:57;;;;;;;6.18;4.30;;;;;;;7.39;93.27;97830.19;4938479;29;20082;-87
2023/03/18 06:37:23;;;;;;;8.55;5.38;;;;;;;7.36;92.56;97825.31;4955416;28;20095;-86
2023/03/18 06:39:52;;;;;;;7.50;4.75;;;;;;;7.32;92.19;97810.25;4973296;28;20039;-89
2023/03/18 06:42:22;;;;;;;5.63;4.70;;;;;;;7.43;94.21;97812.34;4941398;29;20059;-87
2023/03/18 06:44:52;;;;;;;7.20;5.18;;;;;;;7.47;90.96;97829.25;4971590;28;20410;-88
2023/03/18 06:47:20;;;;;;;7.68;4.88;;;;;;;7.54;92.71;97824.09;4948513;28;20474;-86
2023/03/18 06:49:48;;;;;;;6.35;4.47;;;;;;;7.59;90.57;97840.81;4953126;28;20537;-87
2023/03/18 06:52:14;;;;;;;6.13;4.65;;;;;;;7.68;91.81;97836.28;4945673;28;20039;-86
2023/03/18 06:54:44;;;;;;;6.30;4.20;;;;;;;7.68;93.00;97826.66;4967692;28;20479;-86
2023/03/18 06:57:10;;;;;;;6.03;4.35;;;;;;;7.78;91.41;97853.22;4939518;28;20087;-86
2023/03/18 06:59:38;;;;;;;6.10;4.30;;;;;;;7.81;92.78;97839.00;4972956;28;20058;-87
2023/03/18 07:02:04;;;;;;;6.75;4.60;;;;;;;8.03;93.45;97855.44;4946539;28;20057;-87
2023/03/18 07:04:32;;;;;;;7.60;5.05;;;;;;;8.08;91.70;97842.63;4941091;28;20031;-86
2023/03/18 07:06:59;;;;;;;5.32;4.38;;;;;;;8.04;92.44;97838.78;4949634;28;20043;-86
2023/03/18 07:09:27;;;;;;;6.63;4.30;;;;;;;8.12;88.89;97841.25;4955988;28;20055;-86
2023/03/18 07:11:53;;;;;;;7.35;5.18;;;;;;;8.19;85.30;97859.59;4956726;28;20487;-86
2023/03/18 07:14:19;;;;;;;5.70;4.85;;;;;;;8.12;88.29;97859.53;4953000;29;20102;-86
2023/03/18 07:16:46;;;;;;;6.32;4.90;;;;;;;8.09;89.85;97838.19;4969352;28;20047;-86
2023/03/18 07:19:12;;;;;;;7.90;5.15;;;;;;;8.29;89.50;97852.22;4956425;28;20031;-86
2023/03/18 07:21:41;;;;;;;7.38;4.93;;;;;;;8.53;90.36;97867.50;4952076;28;20039;-87
2023/03/18 07:24:08;;;;;;;8.07;5.15;;;;;;;8.53;85.98;97853.63;4943289;29;20039;-87
2023/03/18 07:26:34;;;;;;;5.10;4.40;;;;;;;8.65;86.40;97848.66;4964441;28;20026;-87
2023/03/18 07:29:00;;;;;;;6.45;4.78;;;;;;;8.72;85.96;97859.94;4973548;28;20074;-86
2023/03/18 07:31:27;;;;;;;7.60;4.97;;;;;;;8.88;82.23;97872.72;4955795;28;20093;-86
2023/03/18 07:33:53;;;;;;;8.25;5.70;;;;;;;8.77;81.59;97873.25;4973267;28;20438;-87
2023/03/18 07:36:20;;;;;;;8.70;5.38;;;;;;;8.58;81.08;97859.88;4949162;29;20074;-88
2023/03/18 07:38:46;;;;;;;9.15;6.13;;;;;;;8.78;84.91;97880.09;4965272;28;20035;-88
2023/03/18 07:41:13;;;;;;;11.00;6.72;;;;;;;8.89;84.64;97870.91;4936929;28;20062;-87
2023/03/18 07:43:40;;;;;;;8.45;5.90;;;;;;;8.93;84.07;97877.34;4960305;28;20406;-87
2023/03/18 07:46:08;;;;;;;8.82;6.30;;;;;;;9.10;84.22;97870.78;4968172;28;20062;-89
2023/03/18 07:48:34;;;;;;;11.65;6.75;;;;;;;9.30;83.77;97874.28;4952414;29;20043;-86
2023/03/18 07:51:01;;;;;;;10.98;5.93;;;;;;;9.49;80.16;97892.88;4948097;28;20457;-86
2023/03/18 07:53:46;;;;;;;11.00;6.55;;;;;;;9.58;79.97;97891.66;4952941;28;20424;-87
2023/03/18 07:56:25;;;;;;;10.25;6.20;;;;;;;9.70;80.90;97900.56;4955107;28;20126;-87
2023/03/18 07:58:52;;;;;;;9.88;6.15;;;;;;;9.64;77.90;97880.41;4973070;28;20113;-88
2023/03/18 08:01:18;;;;;;;8.80;5.75;;;;;;;9.75;76.73;97897.34;4966149;28;20026;-86
2023/03/18 08:03:48;;;;;;;7.78;6.05;;;;;;;9.92;76.75;97895.97;4955830;28;20078;-87
2023/03/18 08:06:15;;;;;;;8.35;5.88;;;;;;;9.82;76.90;97888.50;4972965;28;20027;-87
2023/03/18 08:08:42;;;;;;;10.98;5.90;;;;;;;9.99;75.83;97898.59;4970771;28;20030;-88
2023/03/18 08:11:09;;;;;;;7.60;5.07;;;;;;;10.09;76.54;97888.53;4955287;28;20047;-87
2023/03/18 08:13:37;;;;;;;8.23;5.65;;;;;;;10.11;76.36;97891.75;4939365;29;20098;-87
2023/03/18 08:16:04;;;;;;;8.20;5.40;;;;;;;9.97;73.98;97869.19;4949125;28;20055;-87
2023/03/18 08:18:30;;;;;;;8.88;5.45;;;;;;;10.27;79.91;97907.09;4967152;28;20395;-88
2023/03/18 08:20:57;;;;;;;10.55;5.68;;;;;;;10.31;75.93;97873.41;4954109;28;20089;-87
2023/03/18 08:23:24;;;;;;;9.18;5.30;;;;;;;10.42;77.60;97876.22;4951831;29;20047;-87
2023/03/18 08:25:58;;;;;;;6.40;5.53;;;;;;;10.55;73.60;97877.22;4967383;28;20031;-88
2023/03/18 08:28:27;;;;;;;7.65;5.10;;;;;;;10.50;72.66;97874.44;4954971;28;20409;-87
2023/03/18 08:30:58;;;;;;;7.95;5.35;;;;;;;10.57;72.42;97899.63;4957448;28;20035;-88
2023/03/18 08:33:26;;;;;;;7.68;5.18;;;;;;;10.55;72.78;97882.47;4941440;29;20043;-89
2023/03/18 08:35:55;;;;;;;6.40;4.80;;;;;;;10.82;73.64;97907.63;4962904;28;20046;-89
2023/03/18 08:38:22;;;;;;;6.65;5.05;;;;;;;10.65;72.67;97903.84;4945873;29;20407;-87
2023/03/18 08:40:49;;;;;;;6.65;5.32;;;;;;;10.63;71.22;97904.06;4943673;28;20128;-88
2023/03/18 08:43:20;;;;;;;8.80;4.85;;;;;;;10.58;73.23;97879.44;4972422;28;20050;-88
2023/03/18 08:45:56;;;;;;;6.15;5.18;;;;;;;10.77;73.50;97910.06;4968355;28;20045;-87
2023/03/18 08:48:24;;;;;;;6.18;4.85;;;;;;;10.95;72.79;97923.34;4971477;28;20047;-89
2023/03/18 08:50:51;;;;;;;8.02;5.05;;;;;;;11.01;72.52;97924.34;4943348;28;20133;-87
2023/03/18 08:53:21;;;;;;;8.48;5.53;;;;;;;11.15;72.79;97911.97;4941700;28;20049;-89
2023/03/18 08:55:47;;;;;;;6.10;4.85;;;;;;;11.41;71.46;97913.72;4946919;28;20046;-89
2023/03/18 08:58:14;;;;;;;6.93;5.07;;;;;;;11.48;70.61;97899.53;4972491;28;20779;-89
2023/03/18 09:00:41;;;;;;;6.47;4.93;;;;;;;11.69;69.15;97901.00;4949545;29;20043;-89
2023/03/18 09:03:08;;;;;;;6.68;4.95;;;;;;;11.70;69.56;97896.59;4940333;28;20043;-88
2023/03/18 09:05:40;;;;;;;5.32;4.32;;;;;;;11.92;68.40;97908.38;4944023;28;20034;-91
2023/03/18 09:08:06;;;;;;;6.22;4.65;;;;;;;12.14;68.06;97913.31;4942915;28;20039;-91
2023/03/18 09:10:34;;;;;;;9.55;5.00;;;;;;;12.22;69.06;97902.50;4976196;28;20042;-91
2023/03/18 09:13:00;;;;;;;6.90;5.07;;;;;;;12.51;69.59;97925.53;4977333;28;20095;-90
2023/03/18 09:15:27;;;;;;;9.10;4.53;;;;;;;12.50;65.80;97902.88;4956311;28;20047;-88
2023/03/18 09:17:53;;;;;;;6.57;5.00;;;;;;;12.65;65.27;97904.34;4971828;28;20038;-89
2023/03/18 09:20:20;;;;;;;6.22;4.80;;;;;;;12.66;64.72;97874.41;4960332;28;20030;-89
2023/03/18 09:22:46;;;;;;;6.22;4.15;;;;;;;12.96;65.19;97891.09;4976838;28;20379;-90
2023/03/18 09:25:13;;;;;;;8.13;4.50;;;;;;;13.15;64.68;97906.88;4974703;28;20050;-90
2023/03/18 09:27:44;;;;;;;6.75;4.65;;;;;;;13.37;65.63;97908.03;4956019;28;20110;-89
2023/03/18 09:30:14;;;;;;;7.35;5.00;;;;;;;13.35;65.00;97889.03;4958610;28;20031;-88
2023/03/18 09:32:41;;;;;;;5.88;4.57;;;;;;;13.55;62.62;97894.84;4969243;28;20042;-89
2023/03/18 09:35:09;;;;;;;6.47;4.45;;;;;;;13.63;62.22;97880.56;4968657;28;20502;-88
2023/03/18 09:37:39;;;;;;;5.93;4.43;;;;;;;13.57;60.45;97881.47;4958771;28;20386;-89
2023/03/18 09:40:07;;;;;;;7.07;4.38;;;;;;;13.69;59.89;97878.88;4958435;28;20035;-89
2023/03/18 09:42:55;;;;;;;5.45;4.30;;;;;;;13.97;61.08;97897.50;4973939;28;20043;-88
2023/03/18 09:45:34;;;;;;;7.32;4.18;;;;;;;14.07;59.36;97900.38;4983976;28;20619;-89
2023/03/18 09:48:28;;;;;;;6.35;4.53;;;;;;;14.26;58.13;97895.03;4960425;28;20039;-90
2023/03/18 09:51:28;;;;;;;7.15;4.60;;;;;;;14.20;58.32;97865.09;4970593;28;20106;-89
2023/03/18 09:54:21;;;;;;;7.90;4.20;;;;;;;14.42;56.74;97889.09;4959264;28;20524;-89
2023/03/18 09:56:54;;;;;;;6.80;3.88;;;;;;;14.39;58.75;97889.53;4961732;28;20051;-90
2023/03/18 09:59:36;;;;;;;5.15;4.07;;;;;;;14.42;53.43;97886.44;4958736;28;20038;-89
2023/03/18 10:02:19;;;;;;;5.78;3.78;;;;;;;14.46;57.61;97895.53;4961858;28;20051;-89
2023/03/18 10:05:12;;;;;;;9.05;4.30;;;;;;;14.68;54.87;97888.63;4972910;28;20053;-88
2023/03/18 10:07:43;;;;;;;7.07;4.32;;;;;;;14.69;54.97;97873.59;4948917;28;20062;-89
2023/03/18 10:10:29;;;;;;;4.38;3.88;;;;;;;14.62;52.26;97892.19;4959425;28;20553;-89
2023/03/18 10:13:36;;;;;;;4.80;4.30;;;;;;;14.85;54.80;97903.78;4968728;28;20034;-90
2023/03/18 10:16:14;;;;;;;4.20;3.33;;;;;;;15.05;53.29;97903.41;4965807;28;20038;-90
2023/03/18 10:18:43;;;;;;;7.00;4.20;;;;;;;14.85;51.87;97878.19;4942311;28;20524;-89
2023/03/18 10:21:38;;;;;;;7.35;4.80;;;;;;;14.87;53.98;97880.59;4956004;29;20055;-90
2023/03/18 10:24:30;;;;;;;4.55;3.90;;;;;;;14.90;52.12;97909.97;4965901;28;20046;-90
2023/03/18 10:27:47;;;;;;;7.20;3.88;;;;;;;15.07;52.95;97881.03;4975796;28;20613;-90
2023/03/18 10:31:02;;;;;;;7.22;3.67;;;;;;;15.40;50.63;97898.84;4954938;29;20063;-90
2023/03/18 10:34:05;;;;;;;8.15;3.33;;;;;;;15.46;47.59;97878.59;4957059;28;20090;-90
2023/03/18 10:36:50;;;;;;;5.00;3.17;;;;;;;15.62;48.94;97899.03;4975223;28;20445;-89
2023/03/18 10:39:25;;;;;;;4.28;3.78;;;;;;;15.55;48.01;97893.03;4973818;28;20047;-90
2023/03/18 10:42:08;;;;;;;5.90;3.92;;;;;;;15.32;49.05;97866.72;4974344;28;20030;-90
2023/03/18 10:44:40;;;;;;;4.90;3.47;;;;;;;15.39;48.49;97872.66;4965229;28;20027;-90
2023/03/18 10:47:09;;;;;;;5.25;3.25;;;;;;;15.78;49.46;97876.31;4953795;29;20093;-89
2023/03/18 10:49:43;;;;;;;6.00;2.90;;;;;;;16.04;48.66;97885.47;4950764;28;20051;-89
2023/03/18 10:52:49;;;;;;;3.55;2.50;;;;;;;16.22;48.31;97871.19;4973584;28;20038;-89
2023/03/18 10:55:24;;;;;;;6.05;3.22;;;;;;;16.36;48.99;97855.78;4958640;28;20491;-90
2023/03/18 10:57:53;;;;;;;4.07;3.17;;;;;;;16.36;46.87;97861.88;4961264;28;20050;-89
2023/03/18 11:00:28;;;;;;;5.78;3.53;;;;;;;16.29;48.48;97862.06;4956341;28;20039;-89
2023/03/18 11:02:59;;;;;;;5.03;3.13;;;;;;;16.14;47.09;97840.66;4954680;29;20043;-89
2023/03/18 11:05:28;;;;;;;5.43;2.70;;;;;;;16.33;45.87;97852.59;4970575;28;20034;-89
2023/03/18 11:08:05;;;;;;;5.90;2.70;;;;;;;16.33;46.91;97855.25;4954799;29;20042;-89
2023/03/18 11:10:42;;;;;;;3.97;2.00;;;;;;;16.41;45.07;97864.59;4947040;28;20047;-90
2023/03/18 11:13:17;;;;;;;3.25;2.30;;;;;;;16.44;47.76;97847.47;4961166;28;20042;-89
2023/03/18 11:15:53;;;;;;;4.10;2.78;;;;;;;16.44;45.72;97853.56;4977563;28;20033;-88
2023/03/18 11:18:25;;;;;;;4.65;2.63;;;;;;;16.66;47.69;97844.81;4969160;28;20039;-89
2023/03/18 11:21:00;;;;;;;7.95;3.30;;;;;;;16.70;46.08;97848.59;4955500;28;20027;-87
2023/03/18 11:23:55;;;;;;;3.67;2.30;;;;;;;16.75;45.83;97833.63;4941424;28;20031;-87
2023/03/18 11:26:30;;;;;;;4.05;2.22;;;;;;;16.81;44.17;97848.53;4973513;28;20043;-87
2023/03/18 11:29:08;;;;;;;3.70;2.35;;;;;;;16.89;44.16;97857.09;4946264;28;20039;-87
2023/03/18 11:31:50;;;;;;;4.20;2.40;;;;;;;16.90;44.19;97861.31;4939326;28;20050;-87
2023/03/18 11:34:20;;;;;;;4.50;2.78;;;;;;;16.74;44.67;97837.31;4973561;28;20035;-87
2023/03/18 11:37:03;;;;;;;3.65;2.35;;;;;;;16.49;44.98;97839.56;4952262;29;20046;-87
2023/03/18 11:39:42;;;;;;;6.88;2.15;;;;;;;16.35;45.39;97830.38;4953558;29;20031;-87
2023/03/18 11:42:21;;;;;;;4.97;2.00;;;;;;;16.52;44.34;97833.81;4945492;28;20061;-87
2023/03/18 11:44:55;;;;;;;4.70;2.60;;;;;;;16.45;44.96;97812.00;4955494;28;20055;-88
2023/03/18 11:47:34;;;;;;;2.63;1.40;;;;;;;16.81;46.06;97837.94;4973717;28;20052;-87
2023/03/18 11:50:10;;;;;;;2.53;1.52;;;;;;;17.19;44.46;97835.44;4960382;28;20039;-87
2023/03/18 11:52:58;;;;;;;3.78;1.67;;;;;;;17.36;44.15;97836.97;4935209;29;20376;-86
2023/03/18 11:56:18;;;;;;;3.40;1.98;;;;;;;17.26;44.83;97834.19;4937506;28;20092;-86
2023/03/18 11:59:03;;;;;;;3.05;1.85;;;;;;;17.50;44.40;97834.72;4947815;28;20113;-87